sensor_id;sensor_type;location;lat;lon;timestamp;P1;durP1;ratioP1;P2;durP2;ratioP2
2706;SDS011;7819;48.046;7.642;2023-04-24T00:01:07;1.30;;;1.10;;
2706;SDS011;7819;48.046;7.642;2023-04-24T00:03:33;1.60;;;0.90;;
2706;SDS011;7819;48.046;7.642;2023-04-24T00:05:59;1.10;;;0.90;;
2706;SDS011;7819;48.046;7.642;2023-04-24T00:08:25;1.87;;;0.80;;
2706;SDS011;7819;48.046;7.642;2023-04-24T00:10:51;2.73;;;1.20;;
2706;SDS011;7819;48.046;7.642;2023-04-24T00:13:17;1.40;;;1.00;;
2706;SDS011;7819;48.046;7.642;2023-04-24T00:15:42;1.27;;;0.90;;
2706;SDS011;7819;48.046;7.642;2023-04-24T00:18:07;1.83;;;0.70;;
2706;SDS011;7819;48.046;7.642;2023-04-24T00:20:33;3.13;;;0.93;;
2706;SDS011;7819;48.046;7.642;2023-04-24T00:23:00;1.20;;;0.80;;
2706;SDS011;7819;48.046;7.642;2023-04-24T00:25:25;1.73;;;0.80;;
2706;SDS011;7819;48.046;7.642;2023-04-24T00:27:50;2.40;;;0.90;;
2706;SDS011;7819;48.046;7.642;2023-04-24T00:30:15;1.10;;;0.90;;
2706;SDS011;7819;48.046;7.642;2023-04-24T00:32:41;0.97;;;0.87;;
2706;SDS011;7819;48.046;7.642;2023-04-24T00:35:06;1.93;;;1.00;;
2706;SDS011;7819;48.046;7.642;2023-04-24T00:37:31;1.30;;;0.83;;
2706;SDS011;7819;48.046;7.642;2023-04-24T00:39:56;1.80;;;1.00;;
2706;SDS011;7819;48.046;7.642;2023-04-24T00:42:22;1.10;;;0.63;;
2706;SDS011;7819;48.046;7.642;2023-04-24T00:44:47;1.13;;;0.70;;
2706;SDS011;7819;48.046;7.642;2023-04-24T00:47:12;1.33;;;0.87;;
2706;SDS011;7819;48.046;7.642;2023-04-24T00:49:38;1.33;;;0.80;;
2706;SDS011;7819;48.046;7.642;2023-04-24T00:52:03;1.00;;;0.60;;
2706;SDS011;7819;48.046;7.642;2023-04-24T00:54:32;1.70;;;1.00;;
2706;SDS011;7819;48.046;7.642;2023-04-24T00:56:57;2.20;;;1.00;;
2706;SDS011;7819;48.046;7.642;2023-04-24T00:59:23;1.63;;;0.90;;
2706;SDS011;7819;48.046;7.642;2023-04-24T01:01:48;0.70;;;0.67;;
2706;SDS011;7819;48.046;7.642;2023-04-24T01:04:13;1.60;;;0.80;;
2706;SDS011;7819;48.046;7.642;2023-04-24T01:06:39;0.80;;;0.63;;
2706;SDS011;7819;48.046;7.642;2023-04-24T01:09:05;1.10;;;0.90;;
2706;SDS011;7819;48.046;7.642;2023-04-24T01:11:30;2.43;;;1.00;;
2706;SDS011;7819;48.046;7.642;2023-04-24T01:13:56;1.40;;;0.90;;
2706;SDS011;7819;48.046;7.642;2023-04-24T01:16:21;0.90;;;0.67;;
2706;SDS011;7819;48.046;7.642;2023-04-24T01:18:46;1.47;;;1.37;;
2706;SDS011;7819;48.046;7.642;2023-04-24T01:21:13;1.70;;;0.70;;
2706;SDS011;7819;48.046;7.642;2023-04-24T01:23:38;1.43;;;1.10;;
2706;SDS011;7819;48.046;7.642;2023-04-24T01:26:03;1.47;;;0.77;;
2706;SDS011;7819;48.046;7.642;2023-04-24T01:28:28;1.63;;;1.00;;
2706;SDS011;7819;48.046;7.642;2023-04-24T01:30:54;1.83;;;1.20;;
2706;SDS011;7819;48.046;7.642;2023-04-24T01:33:20;1.20;;;0.90;;
2706;SDS011;7819;48.046;7.642;2023-04-24T01:35:46;1.20;;;1.03;;
2706;SDS011;7819;48.046;7.642;2023-04-24T01:38:11;2.87;;;1.20;;
2706;SDS011;7819;48.046;7.642;2023-04-24T01:40:36;1.60;;;1.03;;
2706;SDS011;7819;48.046;7.642;2023-04-24T01:43:01;0.97;;;0.87;;
2706;SDS011;7819;48.046;7.642;2023-04-24T01:45:27;1.10;;;1.00;;
2706;SDS011;7819;48.046;7.642;2023-04-24T01:47:52;1.03;;;0.77;;
2706;SDS011;7819;48.046;7.642;2023-04-24T01:50:18;2.27;;;1.20;;
2706;SDS011;7819;48.046;7.642;2023-04-24T01:52:43;1.20;;;0.77;;
2706;SDS011;7819;48.046;7.642;2023-04-24T01:55:09;1.00;;;0.90;;
2706;SDS011;7819;48.046;7.642;2023-04-24T01:57:34;1.77;;;1.33;;
2706;SDS011;7819;48.046;7.642;2023-04-24T02:00:00;1.47;;;0.83;;
2706;SDS011;7819;48.046;7.642;2023-04-24T02:02:25;1.50;;;1.30;;
2706;SDS011;7819;48.046;7.642;2023-04-24T02:04:52;1.30;;;1.20;;
2706;SDS011;7819;48.046;7.642;2023-04-24T02:07:17;1.50;;;1.40;;
2706;SDS011;7819;48.046;7.642;2023-04-24T02:09:43;2.07;;;1.23;;
2706;SDS011;7819;48.046;7.642;2023-04-24T02:12:08;1.33;;;1.10;;
2706;SDS011;7819;48.046;7.642;2023-04-24T02:14:33;3.00;;;1.33;;
2706;SDS011;7819;48.046;7.642;2023-04-24T02:16:58;1.40;;;1.30;;
2706;SDS011;7819;48.046;7.642;2023-04-24T02:19:23;1.67;;;1.10;;
2706;SDS011;7819;48.046;7.642;2023-04-24T02:21:49;1.33;;;1.17;;
2706;SDS011;7819;48.046;7.642;2023-04-24T02:24:14;1.30;;;1.03;;
2706;SDS011;7819;48.046;7.642;2023-04-24T02:26:39;2.70;;;1.20;;
2706;SDS011;7819;48.046;7.642;2023-04-24T02:29:04;1.73;;;1.17;;
2706;SDS011;7819;48.046;7.642;2023-04-24T02:31:29;2.60;;;1.30;;
2706;SDS011;7819;48.046;7.642;2023-04-24T02:33:55;1.50;;;0.87;;
2706;SDS011;7819;48.046;7.642;2023-04-24T02:36:20;1.20;;;1.10;;
2706;SDS011;7819;48.046;7.642;2023-04-24T02:38:46;1.63;;;1.53;;
2706;SDS011;7819;48.046;7.642;2023-04-24T02:41:11;1.23;;;1.00;;
2706;SDS011;7819;48.046;7.642;2023-04-24T02:43:36;1.50;;;1.20;;
2706;SDS011;7819;48.046;7.642;2023-04-24T02:46:01;1.17;;;0.90;;
2706;SDS011;7819;48.046;7.642;2023-04-24T02:48:26;1.20;;;1.10;;
2706;SDS011;7819;48.046;7.642;2023-04-24T02:50:52;1.40;;;1.23;;
2706;SDS011;7819;48.046;7.642;2023-04-24T02:53:17;0.93;;;0.73;;
2706;SDS011;7819;48.046;7.642;2023-04-24T02:55:42;1.23;;;1.03;;
2706;SDS011;7819;48.046;7.642;2023-04-24T02:58:07;1.40;;;0.90;;
2706;SDS011;7819;48.046;7.642;2023-04-24T03:00:33;1.47;;;1.03;;
2706;SDS011;7819;48.046;7.642;2023-04-24T03:02:58;3.13;;;1.20;;
2706;SDS011;7819;48.046;7.642;2023-04-24T03:05:23;3.07;;;1.70;;
2706;SDS011;7819;48.046;7.642;2023-04-24T03:07:48;0.90;;;0.80;;
2706;SDS011;7819;48.046;7.642;2023-04-24T03:10:14;3.37;;;1.27;;
2706;SDS011;7819;48.046;7.642;2023-04-24T03:12:39;1.30;;;1.20;;
2706;SDS011;7819;48.046;7.642;2023-04-24T03:15:04;1.60;;;1.07;;
2706;SDS011;7819;48.046;7.642;2023-04-24T03:17:29;1.03;;;0.90;;
2706;SDS011;7819;48.046;7.642;2023-04-24T03:19:55;1.97;;;1.10;;
2706;SDS011;7819;48.046;7.642;2023-04-24T03:22:20;2.37;;;1.27;;
2706;SDS011;7819;48.046;7.642;2023-04-24T03:24:45;1.03;;;0.93;;
2706;SDS011;7819;48.046;7.642;2023-04-24T03:27:10;2.20;;;1.07;;
2706;SDS011;7819;48.046;7.642;2023-04-24T03:29:35;2.03;;;1.23;;
2706;SDS011;7819;48.046;7.642;2023-04-24T03:32:01;2.97;;;1.20;;
2706;SDS011;7819;48.046;7.642;2023-04-24T03:34:26;2.33;;;1.80;;
2706;SDS011;7819;48.046;7.642;2023-04-24T03:36:51;2.17;;;1.58;;
2706;SDS011;7819;48.046;7.642;2023-04-24T03:39:17;1.40;;;1.30;;
2706;SDS011;7819;48.046;7.642;2023-04-24T03:41:42;2.50;;;2.30;;
2706;SDS011;7819;48.046;7.642;2023-04-24T03:44:07;4.07;;;3.50;;
2706;SDS011;7819;48.046;7.642;2023-04-24T03:46:33;3.15;;;2.85;;
2706;SDS011;7819;48.046;7.642;2023-04-24T03:48:58;4.27;;;3.87;;
2706;SDS011;7819;48.046;7.642;2023-04-24T03:51:23;4.87;;;2.83;;
2706;SDS011;7819;48.046;7.642;2023-04-24T03:53:49;3.60;;;2.50;;
2706;SDS011;7819;48.046;7.642;2023-04-24T03:56:14;3.10;;;2.73;;
2706;SDS011;7819;48.046;7.642;2023-04-24T03:58:39;2.27;;;2.10;;
2706;SDS011;7819;48.046;7.642;2023-04-24T04:01:04;2.30;;;2.20;;
2706;SDS011;7819;48.046;7.642;2023-04-24T04:03:30;3.03;;;2.70;;
2706;SDS011;7819;48.046;7.642;2023-04-24T04:05:55;2.50;;;2.40;;
2706;SDS011;7819;48.046;7.642;2023-04-24T04:08:20;3.10;;;2.67;;
2706;SDS011;7819;48.046;7.642;2023-04-24T04:10:46;3.10;;;2.63;;
2706;SDS011;7819;48.046;7.642;2023-04-24T04:13:11;2.93;;;2.63;;
2706;SDS011;7819;48.046;7.642;2023-04-24T04:15:36;3.50;;;2.57;;
2706;SDS011;7819;48.046;7.642;2023-04-24T04:18:01;2.90;;;2.60;;
2706;SDS011;7819;48.046;7.642;2023-04-24T04:20:26;2.50;;;2.30;;
2706;SDS011;7819;48.046;7.642;2023-04-24T04:22:51;2.33;;;2.10;;
2706;SDS011;7819;48.046;7.642;2023-04-24T04:25:17;2.25;;;2.10;;
2706;SDS011;7819;48.046;7.642;2023-04-24T04:27:44;2.80;;;2.70;;
2706;SDS011;7819;48.046;7.642;2023-04-24T04:30:09;4.90;;;3.03;;
2706;SDS011;7819;48.046;7.642;2023-04-24T04:32:34;3.83;;;3.63;;
2706;SDS011;7819;48.046;7.642;2023-04-24T04:35:00;2.95;;;2.80;;
2706;SDS011;7819;48.046;7.642;2023-04-24T04:37:28;4.23;;;3.23;;
2706;SDS011;7819;48.046;7.642;2023-04-24T04:39:53;4.83;;;3.30;;
2706;SDS011;7819;48.046;7.642;2023-04-24T04:42:18;3.33;;;3.13;;
2706;SDS011;7819;48.046;7.642;2023-04-24T04:44:43;3.53;;;3.28;;
2706;SDS011;7819;48.046;7.642;2023-04-24T04:47:09;3.50;;;3.20;;
2706;SDS011;7819;48.046;7.642;2023-04-24T04:49:35;3.63;;;3.43;;
2706;SDS011;7819;48.046;7.642;2023-04-24T04:52:00;3.90;;;3.50;;
2706;SDS011;7819;48.046;7.642;2023-04-24T04:54:26;4.43;;;3.90;;
2706;SDS011;7819;48.046;7.642;2023-04-24T04:56:51;4.30;;;3.57;;
2706;SDS011;7819;48.046;7.642;2023-04-24T04:59:16;3.60;;;3.30;;
2706;SDS011;7819;48.046;7.642;2023-04-24T05:01:41;3.25;;;3.05;;
2706;SDS011;7819;48.046;7.642;2023-04-24T05:04:06;3.97;;;3.38;;
2706;SDS011;7819;48.046;7.642;2023-04-24T05:06:32;6.37;;;4.17;;
2706;SDS011;7819;48.046;7.642;2023-04-24T05:08:57;3.40;;;3.20;;
2706;SDS011;7819;48.046;7.642;2023-04-24T05:11:22;3.63;;;3.00;;
2706;SDS011;7819;48.046;7.642;2023-04-24T05:13:47;3.20;;;2.90;;
2706;SDS011;7819;48.046;7.642;2023-04-24T05:16:12;3.40;;;3.20;;
2706;SDS011;7819;48.046;7.642;2023-04-24T05:18:38;3.10;;;2.70;;
2706;SDS011;7819;48.046;7.642;2023-04-24T05:21:03;3.83;;;3.50;;
2706;SDS011;7819;48.046;7.642;2023-04-24T05:23:28;3.43;;;3.13;;
2706;SDS011;7819;48.046;7.642;2023-04-24T05:25:53;4.33;;;4.03;;
2706;SDS011;7819;48.046;7.642;2023-04-24T05:28:19;4.67;;;4.23;;
2706;SDS011;7819;48.046;7.642;2023-04-24T05:30:44;5.40;;;5.00;;
2706;SDS011;7819;48.046;7.642;2023-04-24T05:33:09;6.82;;;4.78;;
2706;SDS011;7819;48.046;7.642;2023-04-24T05:35:35;5.30;;;4.70;;
2706;SDS011;7819;48.046;7.642;2023-04-24T05:38:00;4.43;;;4.13;;
2706;SDS011;7819;48.046;7.642;2023-04-24T05:40:25;5.07;;;3.90;;
2706;SDS011;7819;48.046;7.642;2023-04-24T05:42:50;3.67;;;3.37;;
2706;SDS011;7819;48.046;7.642;2023-04-24T05:45:15;3.77;;;3.17;;
2706;SDS011;7819;48.046;7.642;2023-04-24T05:47:42;3.27;;;2.97;;
2706;SDS011;7819;48.046;7.642;2023-04-24T05:50:07;2.80;;;2.60;;
2706;SDS011;7819;48.046;7.642;2023-04-24T05:52:32;4.20;;;3.20;;
2706;SDS011;7819;48.046;7.642;2023-04-24T05:54:58;2.90;;;2.70;;
2706;SDS011;7819;48.046;7.642;2023-04-24T05:57:23;4.00;;;3.27;;
2706;SDS011;7819;48.046;7.642;2023-04-24T05:59:48;4.90;;;3.37;;
2706;SDS011;7819;48.046;7.642;2023-04-24T06:02:13;3.33;;;2.97;;
2706;SDS011;7819;48.046;7.642;2023-04-24T06:04:38;2.95;;;2.75;;
2706;SDS011;7819;48.046;7.642;2023-04-24T06:07:04;4.47;;;2.57;;
2706;SDS011;7819;48.046;7.642;2023-04-24T06:09:29;4.40;;;2.90;;
2706;SDS011;7819;48.046;7.642;2023-04-24T06:11:54;3.83;;;3.43;;
2706;SDS011;7819;48.046;7.642;2023-04-24T06:14:21;3.10;;;2.80;;
2706;SDS011;7819;48.046;7.642;2023-04-24T06:16:46;2.67;;;2.20;;
2706;SDS011;7819;48.046;7.642;2023-04-24T06:19:11;2.60;;;2.40;;
2706;SDS011;7819;48.046;7.642;2023-04-24T06:21:37;3.00;;;2.57;;
2706;SDS011;7819;48.046;7.642;2023-04-24T06:24:02;2.78;;;2.33;;
2706;SDS011;7819;48.046;7.642;2023-04-24T06:26:28;3.87;;;2.60;;
2706;SDS011;7819;48.046;7.642;2023-04-24T06:28:53;6.10;;;2.30;;
2706;SDS011;7819;48.046;7.642;2023-04-24T06:31:19;3.80;;;2.40;;
2706;SDS011;7819;48.046;7.642;2023-04-24T06:33:45;3.57;;;2.10;;
2706;SDS011;7819;48.046;7.642;2023-04-24T06:36:10;7.83;;;2.50;;
2706;SDS011;7819;48.046;7.642;2023-04-24T06:38:35;2.37;;;2.17;;
2706;SDS011;7819;48.046;7.642;2023-04-24T06:41:00;2.77;;;2.37;;
2706;SDS011;7819;48.046;7.642;2023-04-24T06:43:26;4.20;;;2.87;;
2706;SDS011;7819;48.046;7.642;2023-04-24T06:45:51;3.90;;;2.90;;
2706;SDS011;7819;48.046;7.642;2023-04-24T06:48:16;3.20;;;2.90;;
2706;SDS011;7819;48.046;7.642;2023-04-24T06:50:41;3.03;;;2.50;;
2706;SDS011;7819;48.046;7.642;2023-04-24T06:53:07;3.20;;;2.43;;
2706;SDS011;7819;48.046;7.642;2023-04-24T06:55:32;3.13;;;2.73;;
2706;SDS011;7819;48.046;7.642;2023-04-24T06:57:57;3.20;;;2.60;;
2706;SDS011;7819;48.046;7.642;2023-04-24T07:00:22;5.30;;;2.10;;
2706;SDS011;7819;48.046;7.642;2023-04-24T07:02:49;4.90;;;2.80;;
2706;SDS011;7819;48.046;7.642;2023-04-24T07:05:14;4.10;;;2.17;;
2706;SDS011;7819;48.046;7.642;2023-04-24T07:07:40;3.33;;;2.40;;
2706;SDS011;7819;48.046;7.642;2023-04-24T07:10:05;2.70;;;2.33;;
2706;SDS011;7819;48.046;7.642;2023-04-24T07:12:30;2.93;;;2.10;;
2706;SDS011;7819;48.046;7.642;2023-04-24T07:14:57;2.23;;;2.03;;
2706;SDS011;7819;48.046;7.642;2023-04-24T07:17:22;2.60;;;1.80;;
2706;SDS011;7819;48.046;7.642;2023-04-24T07:19:47;2.13;;;1.53;;
2706;SDS011;7819;48.046;7.642;2023-04-24T07:22:12;2.67;;;2.20;;
2706;SDS011;7819;48.046;7.642;2023-04-24T07:24:41;3.90;;;1.97;;
2706;SDS011;7819;48.046;7.642;2023-04-24T07:27:07;1.73;;;1.40;;
2706;SDS011;7819;48.046;7.642;2023-04-24T07:29:32;2.03;;;1.83;;
2706;SDS011;7819;48.046;7.642;2023-04-24T07:31:57;2.10;;;1.53;;
2706;SDS011;7819;48.046;7.642;2023-04-24T07:34:22;2.20;;;1.43;;
2706;SDS011;7819;48.046;7.642;2023-04-24T07:36:47;2.57;;;1.70;;
2706;SDS011;7819;48.046;7.642;2023-04-24T07:39:13;13.07;;;3.10;;
2706;SDS011;7819;48.046;7.642;2023-04-24T07:41:38;1.77;;;1.20;;
2706;SDS011;7819;48.046;7.642;2023-04-24T07:44:03;4.45;;;1.70;;
2706;SDS011;7819;48.046;7.642;2023-04-24T07:46:29;2.13;;;1.93;;
2706;SDS011;7819;48.046;7.642;2023-04-24T07:48:55;2.47;;;1.80;;
2706;SDS011;7819;48.046;7.642;2023-04-24T07:51:20;1.90;;;1.47;;
2706;SDS011;7819;48.046;7.642;2023-04-24T07:53:45;3.07;;;1.33;;
2706;SDS011;7819;48.046;7.642;2023-04-24T07:56:10;4.50;;;1.80;;
2706;SDS011;7819;48.046;7.642;2023-04-24T07:58:36;2.73;;;1.77;;
2706;SDS011;7819;48.046;7.642;2023-04-24T08:01:01;6.63;;;3.43;;
2706;SDS011;7819;48.046;7.642;2023-04-24T08:03:26;2.30;;;1.60;;
2706;SDS011;7819;48.046;7.642;2023-04-24T08:05:51;2.30;;;1.60;;
2706;SDS011;7819;48.046;7.642;2023-04-24T08:08:16;3.20;;;2.43;;
2706;SDS011;7819;48.046;7.642;2023-04-24T08:10:42;3.10;;;1.30;;
2706;SDS011;7819;48.046;7.642;2023-04-24T08:13:07;1.83;;;1.40;;
2706;SDS011;7819;48.046;7.642;2023-04-24T08:15:32;2.70;;;1.30;;
2706;SDS011;7819;48.046;7.642;2023-04-24T08:17:57;1.73;;;1.30;;
2706;SDS011;7819;48.046;7.642;2023-04-24T08:20:23;1.70;;;1.43;;
2706;SDS011;7819;48.046;7.642;2023-04-24T08:22:48;1.50;;;1.20;;
2706;SDS011;7819;48.046;7.642;2023-04-24T08:25:13;1.90;;;1.50;;
2706;SDS011;7819;48.046;7.642;2023-04-24T08:27:39;1.70;;;1.40;;
2706;SDS011;7819;48.046;7.642;2023-04-24T08:30:04;15.83;;;1.97;;
2706;SDS011;7819;48.046;7.642;2023-04-24T08:32:30;3.40;;;1.80;;
2706;SDS011;7819;48.046;7.642;2023-04-24T08:34:55;1.93;;;1.10;;
2706;SDS011;7819;48.046;7.642;2023-04-24T08:37:21;4.40;;;1.57;;
2706;SDS011;7819;48.046;7.642;2023-04-24T08:39:46;1.30;;;0.90;;
2706;SDS011;7819;48.046;7.642;2023-04-24T08:42:12;2.83;;;1.25;;
2706;SDS011;7819;48.046;7.642;2023-04-24T08:44:37;1.67;;;1.57;;
2706;SDS011;7819;48.046;7.642;2023-04-24T08:47:03;4.53;;;1.70;;
2706;SDS011;7819;48.046;7.642;2023-04-24T08:49:28;2.33;;;1.50;;
2706;SDS011;7819;48.046;7.642;2023-04-24T08:51:54;5.13;;;1.53;;
2706;SDS011;7819;48.046;7.642;2023-04-24T08:54:19;2.90;;;1.70;;
2706;SDS011;7819;48.046;7.642;2023-04-24T08:56:44;3.30;;;1.93;;
2706;SDS011;7819;48.046;7.642;2023-04-24T08:59:11;4.73;;;2.10;;
2706;SDS011;7819;48.046;7.642;2023-04-24T09:01:37;3.10;;;1.73;;
2706;SDS011;7819;48.046;7.642;2023-04-24T09:04:04;3.10;;;1.50;;
2706;SDS011;7819;48.046;7.642;2023-04-24T09:06:31;2.43;;;1.50;;
2706;SDS011;7819;48.046;7.642;2023-04-24T09:08:57;2.30;;;1.70;;
2706;SDS011;7819;48.046;7.642;2023-04-24T09:11:25;3.00;;;2.33;;
2706;SDS011;7819;48.046;7.642;2023-04-24T09:13:50;2.30;;;1.40;;
2706;SDS011;7819;48.046;7.642;2023-04-24T09:16:16;2.30;;;1.40;;
2706;SDS011;7819;48.046;7.642;2023-04-24T09:18:41;1.83;;;1.10;;
2706;SDS011;7819;48.046;7.642;2023-04-24T09:21:07;2.77;;;0.93;;
2706;SDS011;7819;48.046;7.642;2023-04-24T09:23:33;1.30;;;0.83;;
2706;SDS011;7819;48.046;7.642;2023-04-24T09:25:58;2.67;;;1.40;;
2706;SDS011;7819;48.046;7.642;2023-04-24T09:28:25;1.63;;;1.13;;
2706;SDS011;7819;48.046;7.642;2023-04-24T09:31:01;1.40;;;1.03;;
2706;SDS011;7819;48.046;7.642;2023-04-24T09:33:27;3.17;;;1.30;;
2706;SDS011;7819;48.046;7.642;2023-04-24T09:35:52;1.50;;;1.03;;
2706;SDS011;7819;48.046;7.642;2023-04-24T09:38:17;1.83;;;0.73;;
2706;SDS011;7819;48.046;7.642;2023-04-24T09:40:42;2.13;;;0.80;;
2706;SDS011;7819;48.046;7.642;2023-04-24T09:43:10;1.30;;;1.03;;
2706;SDS011;7819;48.046;7.642;2023-04-24T09:45:36;1.10;;;0.77;;
2706;SDS011;7819;48.046;7.642;2023-04-24T09:48:01;1.00;;;0.73;;
2706;SDS011;7819;48.046;7.642;2023-04-24T09:50:26;1.00;;;0.60;;
2706;SDS011;7819;48.046;7.642;2023-04-24T09:52:58;1.10;;;0.70;;
2706;SDS011;7819;48.046;7.642;2023-04-24T09:55:24;1.00;;;0.60;;
2706;SDS011;7819;48.046;7.642;2023-04-24T09:57:50;1.20;;;0.70;;
2706;SDS011;7819;48.046;7.642;2023-04-24T10:00:26;0.93;;;0.63;;
2706;SDS011;7819;48.046;7.642;2023-04-24T10:03:10;1.00;;;0.60;;
2706;SDS011;7819;48.046;7.642;2023-04-24T10:05:36;0.90;;;0.60;;
2706;SDS011;7819;48.046;7.642;2023-04-24T10:08:02;4.20;;;0.50;;
2706;SDS011;7819;48.046;7.642;2023-04-24T10:10:28;1.93;;;0.87;;
2706;SDS011;7819;48.046;7.642;2023-04-24T10:12:54;1.10;;;0.40;;
2706;SDS011;7819;48.046;7.642;2023-04-24T10:15:19;2.73;;;0.63;;
2706;SDS011;7819;48.046;7.642;2023-04-24T10:17:47;1.57;;;0.93;;
2706;SDS011;7819;48.046;7.642;2023-04-24T10:20:17;1.17;;;0.70;;
2706;SDS011;7819;48.046;7.642;2023-04-24T10:22:42;1.97;;;1.00;;
2706;SDS011;7819;48.046;7.642;2023-04-24T10:25:07;2.80;;;0.90;;
2706;SDS011;7819;48.046;7.642;2023-04-24T10:27:33;1.37;;;0.90;;
2706;SDS011;7819;48.046;7.642;2023-04-24T10:30:00;1.37;;;0.90;;
2706;SDS011;7819;48.046;7.642;2023-04-24T10:32:26;1.63;;;0.80;;
2706;SDS011;7819;48.046;7.642;2023-04-24T10:34:51;1.50;;;0.80;;
2706;SDS011;7819;48.046;7.642;2023-04-24T10:37:16;1.40;;;1.00;;
2706;SDS011;7819;48.046;7.642;2023-04-24T10:39:41;1.23;;;0.70;;
2706;SDS011;7819;48.046;7.642;2023-04-24T10:42:16;1.30;;;0.70;;
2706;SDS011;7819;48.046;7.642;2023-04-24T10:44:41;1.40;;;1.00;;
2706;SDS011;7819;48.046;7.642;2023-04-24T10:47:07;1.93;;;0.90;;
2706;SDS011;7819;48.046;7.642;2023-04-24T10:49:37;1.40;;;0.83;;
2706;SDS011;7819;48.046;7.642;2023-04-24T10:52:02;1.00;;;0.70;;
2706;SDS011;7819;48.046;7.642;2023-04-24T10:54:36;1.70;;;0.80;;
2706;SDS011;7819;48.046;7.642;2023-04-24T10:59:43;1.30;;;0.70;;
2706;SDS011;7819;48.046;7.642;2023-04-24T11:02:08;1.33;;;0.80;;
2706;SDS011;7819;48.046;7.642;2023-04-24T11:04:34;2.03;;;0.73;;
2706;SDS011;7819;48.046;7.642;2023-04-24T11:07:00;1.53;;;0.80;;
2706;SDS011;7819;48.046;7.642;2023-04-24T11:09:30;5.63;;;1.10;;
2706;SDS011;7819;48.046;7.642;2023-04-24T11:12:13;1.57;;;1.47;;
2706;SDS011;7819;48.046;7.642;2023-04-24T11:17:34;1.67;;;0.93;;
2706;SDS011;7819;48.046;7.642;2023-04-24T11:20:06;1.80;;;0.70;;
2706;SDS011;7819;48.046;7.642;2023-04-24T11:22:35;1.90;;;1.47;;
2706;SDS011;7819;48.046;7.642;2023-04-24T11:25:02;3.17;;;0.80;;
2706;SDS011;7819;48.046;7.642;2023-04-24T11:27:29;1.20;;;0.70;;
2706;SDS011;7819;48.046;7.642;2023-04-24T11:32:24;2.38;;;0.75;;
2706;SDS011;7819;48.046;7.642;2023-04-24T11:34:51;4.80;;;1.03;;
2706;SDS011;7819;48.046;7.642;2023-04-24T11:37:16;1.30;;;0.90;;
2706;SDS011;7819;48.046;7.642;2023-04-24T11:39:42;1.40;;;0.93;;
2706;SDS011;7819;48.046;7.642;2023-04-24T11:42:07;4.10;;;1.80;;
2706;SDS011;7819;48.046;7.642;2023-04-24T11:44:34;4.00;;;1.50;;
2706;SDS011;7819;48.046;7.642;2023-04-24T11:46:59;3.40;;;1.00;;
2706;SDS011;7819;48.046;7.642;2023-04-24T11:49:24;3.80;;;1.10;;
2706;SDS011;7819;48.046;7.642;2023-04-24T11:51:50;2.33;;;1.13;;
2706;SDS011;7819;48.046;7.642;2023-04-24T11:54:15;1.40;;;0.80;;
2706;SDS011;7819;48.046;7.642;2023-04-24T11:56:44;1.47;;;0.70;;
2706;SDS011;7819;48.046;7.642;2023-04-24T11:59:09;1.30;;;0.90;;
2706;SDS011;7819;48.046;7.642;2023-04-24T12:01:44;1.50;;;1.10;;
2706;SDS011;7819;48.046;7.642;2023-04-24T12:04:10;2.07;;;1.60;;
2706;SDS011;7819;48.046;7.642;2023-04-24T12:06:35;1.23;;;0.80;;
2706;SDS011;7819;48.046;7.642;2023-04-24T12:09:00;1.63;;;0.70;;
2706;SDS011;7819;48.046;7.642;2023-04-24T12:11:26;1.67;;;0.73;;
2706;SDS011;7819;48.046;7.642;2023-04-24T12:13:51;2.30;;;1.17;;
2706;SDS011;7819;48.046;7.642;2023-04-24T12:16:16;2.23;;;0.80;;
2706;SDS011;7819;48.046;7.642;2023-04-24T12:18:42;1.63;;;0.80;;
2706;SDS011;7819;48.046;7.642;2023-04-24T12:21:14;1.63;;;0.80;;
2706;SDS011;7819;48.046;7.642;2023-04-24T12:23:42;5.20;;;1.50;;
2706;SDS011;7819;48.046;7.642;2023-04-24T12:26:07;2.13;;;0.70;;
2706;SDS011;7819;48.046;7.642;2023-04-24T12:28:36;1.57;;;0.90;;
2706;SDS011;7819;48.046;7.642;2023-04-24T12:31:01;1.70;;;0.90;;
2706;SDS011;7819;48.046;7.642;2023-04-24T12:33:27;1.47;;;0.90;;
2706;SDS011;7819;48.046;7.642;2023-04-24T12:35:52;2.20;;;1.03;;
2706;SDS011;7819;48.046;7.642;2023-04-24T12:38:24;1.87;;;0.80;;
2706;SDS011;7819;48.046;7.642;2023-04-24T12:41:01;1.40;;;1.07;;
2706;SDS011;7819;48.046;7.642;2023-04-24T12:43:26;1.60;;;1.00;;
2706;SDS011;7819;48.046;7.642;2023-04-24T12:45:51;1.30;;;1.10;;
2706;SDS011;7819;48.046;7.642;2023-04-24T12:48:17;1.30;;;0.80;;
2706;SDS011;7819;48.046;7.642;2023-04-24T12:50:42;2.58;;;1.00;;
2706;SDS011;7819;48.046;7.642;2023-04-24T12:53:08;1.90;;;0.73;;
2706;SDS011;7819;48.046;7.642;2023-04-24T12:55:33;1.80;;;1.20;;
2706;SDS011;7819;48.046;7.642;2023-04-24T12:57:59;1.97;;;0.70;;
2706;SDS011;7819;48.046;7.642;2023-04-24T13:00:24;1.63;;;0.90;;
2706;SDS011;7819;48.046;7.642;2023-04-24T13:02:49;1.80;;;0.87;;
2706;SDS011;7819;48.046;7.642;2023-04-24T13:05:14;2.17;;;0.70;;
2706;SDS011;7819;48.046;7.642;2023-04-24T13:07:40;2.23;;;1.23;;
2706;SDS011;7819;48.046;7.642;2023-04-24T13:10:06;2.13;;;1.00;;
2706;SDS011;7819;48.046;7.642;2023-04-24T13:12:31;1.10;;;0.73;;
2706;SDS011;7819;48.046;7.642;2023-04-24T13:14:57;1.70;;;0.80;;
2706;SDS011;7819;48.046;7.642;2023-04-24T13:17:22;1.47;;;1.20;;
2706;SDS011;7819;48.046;7.642;2023-04-24T13:19:48;1.70;;;0.70;;
2706;SDS011;7819;48.046;7.642;2023-04-24T13:22:14;2.40;;;0.80;;
2706;SDS011;7819;48.046;7.642;2023-04-24T13:24:39;1.60;;;0.73;;
2706;SDS011;7819;48.046;7.642;2023-04-24T13:27:08;1.27;;;0.97;;
2706;SDS011;7819;48.046;7.642;2023-04-24T13:29:33;1.30;;;0.93;;
2706;SDS011;7819;48.046;7.642;2023-04-24T13:31:59;1.10;;;0.80;;
2706;SDS011;7819;48.046;7.642;2023-04-24T13:34:24;3.03;;;1.37;;
2706;SDS011;7819;48.046;7.642;2023-04-24T13:36:53;1.80;;;1.20;;
2706;SDS011;7819;48.046;7.642;2023-04-24T13:39:19;1.57;;;1.23;;
2706;SDS011;7819;48.046;7.642;2023-04-24T13:41:44;4.13;;;0.80;;
2706;SDS011;7819;48.046;7.642;2023-04-24T13:44:12;1.00;;;0.80;;
2706;SDS011;7819;48.046;7.642;2023-04-24T13:46:37;3.00;;;1.40;;
2706;SDS011;7819;48.046;7.642;2023-04-24T13:49:02;2.37;;;1.30;;
2706;SDS011;7819;48.046;7.642;2023-04-24T13:51:28;3.77;;;1.63;;
2706;SDS011;7819;48.046;7.642;2023-04-24T13:53:53;2.37;;;1.30;;
2706;SDS011;7819;48.046;7.642;2023-04-24T13:56:19;1.67;;;1.07;;
2706;SDS011;7819;48.046;7.642;2023-04-24T13:58:45;2.70;;;1.53;;
2706;SDS011;7819;48.046;7.642;2023-04-24T14:01:10;4.40;;;1.67;;
2706;SDS011;7819;48.046;7.642;2023-04-24T14:03:36;2.60;;;1.27;;
2706;SDS011;7819;48.046;7.642;2023-04-24T14:06:02;2.50;;;1.20;;
2706;SDS011;7819;48.046;7.642;2023-04-24T14:08:27;2.23;;;1.20;;
2706;SDS011;7819;48.046;7.642;2023-04-24T14:10:52;3.00;;;1.47;;
2706;SDS011;7819;48.046;7.642;2023-04-24T14:13:17;1.57;;;1.33;;
2706;SDS011;7819;48.046;7.642;2023-04-24T14:15:43;4.23;;;1.77;;
2706;SDS011;7819;48.046;7.642;2023-04-24T14:18:08;1.67;;;1.33;;
2706;SDS011;7819;48.046;7.642;2023-04-24T14:20:33;2.83;;;1.33;;
2706;SDS011;7819;48.046;7.642;2023-04-24T14:22:58;2.20;;;1.37;;
2706;SDS011;7819;48.046;7.642;2023-04-24T14:25:24;3.97;;;1.77;;
2706;SDS011;7819;48.046;7.642;2023-04-24T14:27:49;2.70;;;1.50;;
2706;SDS011;7819;48.046;7.642;2023-04-24T14:30:14;1.90;;;1.60;;
2706;SDS011;7819;48.046;7.642;2023-04-24T14:32:40;2.00;;;1.40;;
2706;SDS011;7819;48.046;7.642;2023-04-24T14:35:05;2.03;;;1.30;;
2706;SDS011;7819;48.046;7.642;2023-04-24T14:37:31;1.97;;;1.50;;
2706;SDS011;7819;48.046;7.642;2023-04-24T14:39:56;2.53;;;1.27;;
2706;SDS011;7819;48.046;7.642;2023-04-24T14:42:21;1.60;;;1.13;;
2706;SDS011;7819;48.046;7.642;2023-04-24T14:44:47;1.10;;;0.90;;
2706;SDS011;7819;48.046;7.642;2023-04-24T14:47:12;1.97;;;1.30;;
2706;SDS011;7819;48.046;7.642;2023-04-24T14:49:37;1.37;;;1.20;;
2706;SDS011;7819;48.046;7.642;2023-04-24T14:52:02;1.30;;;1.03;;
2706;SDS011;7819;48.046;7.642;2023-04-24T14:54:27;1.63;;;0.82;;
2706;SDS011;7819;48.046;7.642;2023-04-24T14:56:53;1.83;;;1.73;;
2706;SDS011;7819;48.046;7.642;2023-04-24T14:59:19;3.17;;;0.87;;
2706;SDS011;7819;48.046;7.642;2023-04-24T15:01:44;2.00;;;1.23;;
2706;SDS011;7819;48.046;7.642;2023-04-24T15:04:10;5.00;;;1.57;;
2706;SDS011;7819;48.046;7.642;2023-04-24T15:06:35;1.40;;;1.17;;
2706;SDS011;7819;48.046;7.642;2023-04-24T15:09:00;1.70;;;1.40;;
2706;SDS011;7819;48.046;7.642;2023-04-24T15:11:25;3.10;;;1.30;;
2706;SDS011;7819;48.046;7.642;2023-04-24T15:13:51;3.00;;;1.53;;